Time;durP1;ratioP1;P1;durP2;ratioP2;P2;SDS_P1;SDS_P2;PMS_P1;PMS_P2;Temp;Humidity;BMP_temperature;BMP_pressure;BME280_temperature;BME280_humidity;BME280_pressure;Samples;Min_cycle;Max_cycle;Signal;HPM_P1;HPM_P2
2022/09/15 00:00:27;;;;;;;24.85;11.68;;;;;;;17.34;100.00;92046.84;5033175;28;20049;-76
2022/09/15 00:02:52;;;;;;;30.70;12.48;;;;;;;17.35;100.00;92049.16;5050987;28;20031;-78
2022/09/15 00:05:18;;;;;;;26.45;11.93;;;;;;;17.37;100.00;92048.84;5033010;28;20231;-76
2022/09/15 00:07:44;;;;;;;26.67;12.68;;;;;;;17.37;100.00;92040.91;5010842;28;20049;-77
2022/09/15 00:10:10;;;;;;;33.67;13.63;;;;;;;17.39;100.00;92028.09;5029169;28;20026;-77
2022/09/15 00:12:36;;;;;;;29.85;13.50;;;;;;;17.40;100.00;92037.56;5013198;28;20511;-77
2022/09/15 00:15:03;;;;;;;35.10;15.15;;;;;;;17.41;100.00;92055.00;5030284;28;20073;-77
2022/09/15 00:17:30;;;;;;;33.72;13.93;;;;;;;17.44;100.00;92067.53;5036837;28;20690;-77
2022/09/15 00:19:57;;;;;;;26.30;13.82;;;;;;;17.45;100.00;92069.06;5002060;28;20061;-76
2022/09/15 00:22:23;;;;;;;26.10;13.43;;;;;;;17.45;100.00;92061.13;5022255;28;20528;-76
2022/09/15 00:24:48;;;;;;;26.85;13.77;;;;;;;17.45;100.00;92059.28;5031043;28;20112;-76
2022/09/15 00:27:15;;;;;;;29.02;13.48;;;;;;;17.46;100.00;92049.44;5032211;28;20057;-76
2022/09/15 00:29:41;;;;;;;27.40;13.13;;;;;;;17.45;100.00;92046.03;5026215;28;20411;-77
2022/09/15 00:32:07;;;;;;;33.42;13.27;;;;;;;17.47;100.00;92050.97;5010864;28;20037;-77
2022/09/15 00:34:32;;;;;;;29.20;13.07;;;;;;;17.47;100.00;92043.81;5016651;28;20538;-76
2022/09/15 00:36:58;;;;;;;33.15;13.32;;;;;;;17.47;100.00;92043.03;5034860;28;20410;-77
2022/09/15 00:39:24;;;;;;;26.58;11.77;;;;;;;17.48;100.00;92047.22;5046239;28;20024;-77
2022/09/15 00:41:49;;;;;;;27.20;12.98;;;;;;;17.49;100.00;92032.88;5036622;28;20072;-76
2022/09/15 00:44:15;;;;;;;32.20;12.45;;;;;;;17.48;100.00;92026.06;5035929;28;20037;-76
2022/09/15 00:46:43;;;;;;;39.67;13.50;;;;;;;17.46;100.00;92020.34;5020205;28;20048;-77
2022/09/15 00:49:15;;;;;;;31.17;12.20;;;;;;;17.45;100.00;92021.44;5031338;28;20030;-76
2022/09/15 00:51:40;;;;;;;34.10;12.82;;;;;;;17.41;100.00;92020.59;5009302;28;20033;-77
2022/09/15 00:54:11;;;;;;;31.00;12.18;;;;;;;17.37;100.00;92011.81;5034798;28;20033;-76
2022/09/15 00:56:39;;;;;;;28.95;12.27;;;;;;;17.31;100.00;92011.25;5032927;28;20064;-76
2022/09/15 00:59:10;;;;;;;22.45;11.70;;;;;;;17.28;100.00;92022.53;5023923;28;20443;-76
2022/09/15 01:01:35;;;;;;;28.90;11.95;;;;;;;17.24;100.00;92021.66;5032743;28;20460;-76
2022/09/15 01:04:01;;;;;;;24.05;12.13;;;;;;;17.23;100.00;92010.31;5031879;28;20116;-76
2022/09/15 01:06:36;;;;;;;28.70;11.40;;;;;;;17.20;100.00;92015.50;5012076;28;20092;-75
2022/09/15 01:09:05;;;;;;;32.55;13.90;;;;;;;17.14;100.00;92007.06;5018381;28;20108;-77
2022/09/15 01:11:31;;;;;;;26.33;11.80;;;;;;;17.14;100.00;91999.13;5015146;28;20499;-76
2022/09/15 01:13:57;;;;;;;28.42;11.90;;;;;;;17.12;100.00;91990.75;5026618;28;20060;-77
2022/09/15 01:16:43;;;;;;;28.17;12.63;;;;;;;17.11;100.00;91991.09;5019801;28;20115;-77
2022/09/15 01:19:47;;;;;;;35.03;12.80;;;;;;;17.09;100.00;91998.59;5030456;28;20041;-76
2022/09/15 01:22:35;;;;;;;28.85;12.00;;;;;;;17.05;100.00;91999.28;5015424;28;20069;-76
2022/09/15 01:25:19;;;;;;;30.63;10.98;;;;;;;17.04;100.00;92007.53;5053337;28;20040;-77
2022/09/15 01:27:55;;;;;;;31.38;12.48;;;;;;;17.02;100.00;92009.75;5051915;28;20073;-77
2022/09/15 01:30:23;;;;;;;32.00;12.52;;;;;;;17.03;100.00;92013.94;5035700;28;20132;-76
2022/09/15 01:33:13;;;;;;;24.45;12.73;;;;;;;17.02;100.00;92004.47;5053200;28;20025;-77
2022/09/15 01:36:01;;;;;;;28.10;12.18;;;;;;;17.05;100.00;91994.00;5005192;28;20042;-77
2022/09/15 01:38:34;;;;;;;25.63;10.95;;;;;;;17.05;100.00;91998.50;5029707;28;20495;-77
2022/09/15 01:41:25;;;;;;;29.98;11.73;;;;;;;17.06;100.00;92000.81;5049809;28;20040;-77
2022/09/15 01:44:00;;;;;;;26.55;12.07;;;;;;;17.05;100.00;91999.28;5034350;28;20064;-77
2022/09/15 01:46:31;;;;;;;28.95;12.07;;;;;;;17.05;100.00;91993.22;5031913;28;20404;-77
2022/09/15 01:49:00;;;;;;;27.67;11.98;;;;;;;17.04;100.00;91984.53;5016658;28;20493;-77
2022/09/15 01:51:28;;;;;;;27.35;12.18;;;;;;;17.03;100.00;91982.22;5015108;28;20434;-77
2022/09/15 01:53:55;;;;;;;35.70;11.98;;;;;;;16.99;100.00;91981.34;5032990;28;20037;-77
2022/09/15 01:56:21;;;;;;;41.63;12.93;;;;;;;16.96;100.00;91982.78;5033183;28;20403;-77
2022/09/15 01:58:50;;;;;;;30.02;12.68;;;;;;;16.93;100.00;91980.03;5035366;28;20045;-77
2022/09/15 02:01:45;;;;;;;39.13;11.05;;;;;;;16.92;100.00;91978.53;5051939;28;20033;-76
2022/09/15 02:04:35;;;;;;;34.33;12.45;;;;;;;16.92;100.00;91973.22;5032939;28;20041;-76
2022/09/15 02:07:10;;;;;;;35.15;12.10;;;;;;;16.88;100.00;91973.13;5032948;28;20036;-76
2022/09/15 02:09:57;;;;;;;34.03;12.27;;;;;;;16.85;100.00;91974.56;5026648;28;20038;-76
2022/09/15 02:12:42;;;;;;;37.28;12.18;;;;;;;16.83;100.00;91960.91;5014087;28;20095;-76
2022/09/15 02:15:14;;;;;;;38.30;11.57;;;;;;;16.81;100.00;91962.38;5031936;28;20037;-76
2022/09/15 02:17:44;;;;;;;31.02;10.95;;;;;;;16.78;100.00;91960.38;5032038;28;20121;-77
2022/09/15 02:20:22;;;;;;;29.77;10.68;;;;;;;16.75;100.00;91967.13;5032374;28;20063;-77
2022/09/15 02:22:54;;;;;;;40.03;11.02;;;;;;;16.70;100.00;91962.03;5031698;28;20038;-77
2022/09/15 02:25:42;;;;;;;40.95;12.18;;;;;;;16.67;100.00;91962.72;5029870;28;20044;-77
2022/09/15 02:28:12;;;;;;;30.55;10.43;;;;;;;16.65;100.00;91964.94;5031307;28;20068;-76
2022/09/15 02:30:41;;;;;;;34.97;11.68;;;;;;;16.61;100.00;91961.41;5044716;28;20035;-76
2022/09/15 02:33:14;;;;;;;26.92;10.52;;;;;;;16.60;100.00;91965.94;5033554;28;20040;-77
2022/09/15 02:35:41;;;;;;;40.78;11.23;;;;;;;16.58;100.00;91962.88;5050970;28;20037;-76
2022/09/15 02:38:09;;;;;;;37.08;10.50;;;;;;;16.59;100.00;91966.25;5051109;28;20041;-77
2022/09/15 02:40:38;;;;;;;29.02;9.90;;;;;;;16.56;100.00;91964.31;5033458;28;20108;-77
2022/09/15 02:43:09;;;;;;;33.28;10.00;;;;;;;16.53;100.00;91965.00;5030184;28;20041;-76
2022/09/15 02:45:35;;;;;;;34.87;10.27;;;;;;;16.48;100.00;91952.75;5031313;28;20491;-76
2022/09/15 02:48:01;;;;;;;33.45;9.70;;;;;;;16.44;100.00;91954.56;5031528;28;20026;-77
2022/09/15 02:50:26;;;;;;;32.72;10.40;;;;;;;16.39;100.00;91947.63;5035220;28;20067;-77
2022/09/15 02:52:56;;;;;;;40.05;10.35;;;;;;;16.37;100.00;91949.03;5025895;28;20064;-77
2022/09/15 02:55:23;;;;;;;37.40;10.45;;;;;;;16.37;100.00;91941.13;5014294;28;20021;-77
2022/09/15 02:57:49;;;;;;;36.85;11.52;;;;;;;16.32;100.00;91926.28;5013144;28;20746;-77
2022/09/15 03:00:18;;;;;;;39.88;10.65;;;;;;;16.32;100.00;91917.59;5035512;28;20033;-77
2022/09/15 03:02:49;;;;;;;36.95;10.23;;;;;;;16.30;100.00;91923.22;5051935;28;20040;-77
2022/09/15 03:05:17;;;;;;;47.85;11.30;;;;;;;16.23;100.00;91913.22;5045917;28;20033;-77
2022/09/15 03:07:42;;;;;;;31.10;9.93;;;;;;;16.21;100.00;91907.50;5029976;28;20032;-77
2022/09/15 03:10:10;;;;;;;41.80;11.77;;;;;;;16.19;100.00;91901.78;5031617;28;20025;-77
2022/09/15 03:12:42;;;;;;;35.42;11.30;;;;;;;16.17;100.00;91900.59;5047045;28;20136;-77
2022/09/15 03:15:10;;;;;;;33.05;11.32;;;;;;;16.14;100.00;91895.97;5049810;28;20390;-77
2022/09/15 03:17:37;;;;;;;42.45;10.60;;;;;;;16.10;100.00;91885.31;5040874;28;20028;-77
2022/09/15 03:20:06;;;;;;;38.35;11.20;;;;;;;16.08;100.00;91881.47;5050636;28;20123;-77
2022/09/15 03:22:31;;;;;;;38.67;9.82;;;;;;;16.05;100.00;91884.78;5027133;28;20452;-77
2022/09/15 03:24:57;;;;;;;37.05;10.10;;;;;;;16.03;100.00;91880.59;5021104;28;20026;-77
2022/09/15 03:27:23;;;;;;;39.38;11.15;;;;;;;16.00;100.00;91878.63;5012361;28;20117;-77
2022/09/15 03:29:49;;;;;;;53.00;10.05;;;;;;;16.00;100.00;91873.34;5017981;28;20025;-78
2022/09/15 03:32:14;;;;;;;42.53;9.93;;;;;;;15.97;100.00;91862.69;5031482;28;20029;-77
2022/09/15 03:34:40;;;;;;;37.60;9.82;;;;;;;15.94;100.00;91865.97;5012770;28;20044;-76
2022/09/15 03:37:06;;;;;;;37.50;9.15;;;;;;;15.93;100.00;91859.19;5030453;28;20499;-76
2022/09/15 03:39:32;;;;;;;48.25;8.95;;;;;;;15.94;100.00;91863.34;5030776;28;20080;-77
2022/09/15 03:41:58;;;;;;;35.22;9.20;;;;;;;15.93;100.00;91857.31;5030189;28;20032;-77
2022/09/15 03:44:23;;;;;;;41.45;9.43;;;;;;;15.94;100.00;91853.56;5042898;28;20146;-76
2022/09/15 03:46:49;;;;;;;34.88;10.20;;;;;;;15.95;100.00;91860.38;5012856;28;20072;-77
2022/09/15 03:49:15;;;;;;;28.23;8.73;;;;;;;16.00;100.00;91867.28;5030164;28;20037;-76
2022/09/15 03:51:41;;;;;;;36.10;9.27;;;;;;;16.00;100.00;91862.78;5031135;28;20499;-76
2022/09/15 03:54:07;;;;;;;35.13;9.57;;;;;;;16.01;100.00;91863.56;5022330;28;20074;-77
2022/09/15 03:56:33;;;;;;;35.03;10.07;;;;;;;16.00;100.00;91862.03;5030597;28;20479;-77
2022/09/15 03:59:00;;;;;;;36.30;8.85;;;;;;;15.99;100.00;91861.25;5031922;28;20123;-77
2022/09/15 04:01:27;;;;;;;36.90;9.48;;;;;;;15.99;100.00;91855.22;5033270;28;20291;-77
2022/09/15 04:03:53;;;;;;;34.83;9.00;;;;;;;15.97;100.00;91850.25;5014594;28;20061;-77
2022/09/15 04:06:20;;;;;;;29.10;9.38;;;;;;;15.96;100.00;91854.00;5013404;28;20088;-77
2022/09/15 04:08:47;;;;;;;29.02;9.38;;;;;;;15.96;100.00;91851.38;5033527;28;20040;-76
2022/09/15 04:11:13;;;;;;;43.42;10.57;;;;;;;15.96;100.00;91853.22;4992618;28;20061;-77
2022/09/15 04:13:40;;;;;;;33.38;8.55;;;;;;;15.93;100.00;91852.03;5048913;28;20116;-77
2022/09/15 04:16:12;;;;;;;30.42;9.05;;;;;;;15.93;100.00;91848.63;5033899;28;20037;-76
2022/09/15 04:18:38;;;;;;;35.97;8.67;;;;;;;15.90;100.00;91844.78;5034421;28;20037;-77
2022/09/15 04:21:10;;;;;;;36.20;8.88;;;;;;;15.89;100.00;91839.84;5034018;28;20367;-76
2022/09/15 04:23:36;;;;;;;35.88;9.75;;;;;;;15.86;100.00;91836.00;5015143;28;20051;-77
2022/09/15 04:26:05;;;;;;;43.35;8.70;;;;;;;15.84;100.00;91830.28;5029147;28;20034;-77
2022/09/15 04:28:33;;;;;;;35.50;9.38;;;;;;;15.79;100.00;91830.53;5015075;28;20049;-77
2022/09/15 04:31:10;;;;;;;31.25;8.10;;;;;;;15.76;100.00;91828.53;5022340;28;20136;-76
2022/09/15 04:33:37;;;;;;;49.28;9.00;;;;;;;15.77;100.00;91812.38;5022410;28;20489;-76
2022/09/15 04:36:22;;;;;;;48.97;9.02;;;;;;;15.76;100.00;91810.06;5027244;28;20034;-77
2022/09/15 04:38:49;;;;;;;43.22;9.18;;;;;;;15.71;100.00;91802.38;5027085;28;20090;-78
2022/09/15 04:41:16;;;;;;;33.45;8.98;;;;;;;15.68;100.00;91809.06;5011796;28;20381;-77
2022/09/15 04:43:42;;;;;;;43.65;9.18;;;;;;;15.66;100.00;91816.53;5032260;28;20093;-77
2022/09/15 04:46:08;;;;;;;50.70;8.88;;;;;;;15.65;100.00;91822.16;5031912;28;20034;-76
2022/09/15 04:48:34;;;;;;;35.47;9.95;;;;;;;15.64;100.00;91817.97;5041993;28;20037;-77
2022/09/15 04:51:01;;;;;;;36.30;7.93;;;;;;;15.62;100.00;91821.72;5014185;28;20044;-77
2022/09/15 04:53:28;;;;;;;45.25;10.32;;;;;;;15.60;100.00;91826.56;5013451;28;20063;-77
2022/09/15 04:56:10;;;;;;;36.28;9.18;;;;;;;15.59;100.00;91837.44;5028755;28;20085;-77
2022/09/15 04:58:49;;;;;;;40.30;9.23;;;;;;;15.58;100.00;91826.13;5003373;28;20032;-77
2022/09/15 05:01:21;;;;;;;30.90;8.88;;;;;;;15.56;100.00;91828.34;5020105;28;20025;-79
2022/09/15 05:03:46;;;;;;;;;;;;;;;15.56;100.00;91836.25;5033483;28;20394;-77
2022/09/15 05:06:15;;;;;;;41.00;9.60;;;;;;;15.53;100.00;91836.91;5032659;28;19917;-77
2022/09/15 05:08:41;;;;;;;33.28;8.88;;;;;;;15.53;100.00;91844.81;5015981;28;20447;-77
2022/09/15 05:11:11;;;;;;;41.03;9.80;;;;;;;15.53;100.00;91847.44;5032671;28;20141;-79
2022/09/15 05:13:38;;;;;;;41.97;9.73;;;;;;;15.56;100.00;91849.44;5032545;28;20495;-78
2022/09/15 05:16:06;;;;;;;35.10;9.52;;;;;;;15.59;100.00;91855.91;5016367;28;20491;-78
2022/09/15 05:18:32;;;;;;;37.03;10.18;;;;;;;15.61;100.00;91848.44;5016480;28;20049;-76
2022/09/15 05:20:59;;;;;;;35.25;9.52;;;;;;;15.65;100.00;91851.16;5015393;28;20439;-76
2022/09/15 05:23:25;;;;;;;42.42;9.75;;;;;;;15.68;100.00;91858.44;5029161;28;20045;-75
2022/09/15 05:25:58;;;;;;;38.30;10.43;;;;;;;15.75;100.00;91861.31;5013746;28;20037;-78
2022/09/15 05:28:24;;;;;;;32.83;10.65;;;;;;;15.83;100.00;91865.69;5027024;28;20043;-78
2022/09/15 05:30:51;;;;;;;41.60;10.77;;;;;;;15.91;100.00;91864.78;5024088;28;20581;-77
2022/09/15 05:33:18;;;;;;;42.35;13.88;;;;;;;15.99;100.00;91858.63;5036212;28;20517;-78
2022/09/15 05:35:55;;;;;;;43.33;11.23;;;;;;;16.09;100.00;91865.28;5054325;28;20028;-77
2022/09/15 05:38:21;;;;;;;31.38;11.75;;;;;;;16.18;100.00;91865.91;5054108;28;20061;-78
2022/09/15 05:40:47;;;;;;;38.22;11.85;;;;;;;16.28;100.00;91877.91;5034688;28;20470;-79
2022/09/15 05:43:13;;;;;;;30.08;11.88;;;;;;;16.41;100.00;91871.47;5051468;28;20140;-77
2022/09/15 05:45:41;;;;;;;39.28;11.15;;;;;;;16.58;100.00;91880.97;5052749;28;20053;-76
2022/09/15 05:48:09;;;;;;;40.20;12.13;;;;;;;16.97;100.00;91872.53;5052411;28;20079;-77
2022/09/15 05:50:35;;;;;;;44.40;10.55;;;;;;;17.56;100.00;91866.38;5031736;28;20029;-78
2022/09/15 05:53:00;;;;;;;39.20;10.75;;;;;;;17.37;100.00;91874.25;5033563;28;20087;-78
2022/09/15 05:55:27;;;;;;;37.65;9.77;;;;;;;17.24;100.00;91873.56;5016740;28;20037;-78
2022/09/15 05:57:53;;;;;;;46.78;10.60;;;;;;;17.32;100.00;91887.72;5033869;28;20022;-77
2022/09/15 06:00:18;;;;;;;41.08;12.25;;;;;;;17.95;100.00;91885.03;5033720;28;20052;-78
2022/09/15 06:02:44;;;;;;;38.22;10.63;;;;;;;19.08;97.79;91884.16;5039282;28;20113;-78
2022/09/15 06:05:10;;;;;;;27.92;10.23;;;;;;;19.95;92.20;91876.44;5052970;28;20094;-78
2022/09/15 06:07:35;;;;;;;33.17;9.63;;;;;;;20.65;85.91;91868.94;5054599;28;20036;-79
2022/09/15 06:10:03;;;;;;;39.55;10.93;;;;;;;20.87;81.86;91870.69;5036543;28;20048;-79
2022/09/15 06:12:28;;;;;;;56.75;9.93;;;;;;;21.72;79.21;91874.50;5052697;28;20067;-79
2022/09/15 06:14:53;;;;;;;40.63;9.10;;;;;;;22.40;76.88;91874.94;5042002;28;20065;-79
2022/09/15 06:17:21;;;;;;;37.40;9.15;;;;;;;23.06;73.28;91891.56;5016913;28;20064;-79
2022/09/15 06:19:47;;;;;;;32.05;8.45;;;;;;;23.74;71.01;91887.44;5016945;28;20037;-79
2022/09/15 06:22:13;;;;;;;27.35;7.55;;;;;;;24.29;67.59;91884.31;5032544;28;20384;-79
2022/09/15 06:24:38;;;;;;;33.78;8.07;;;;;;;24.78;64.96;91882.66;5013660;28;20109;-80
2022/09/15 06:27:04;;;;;;;27.13;7.00;;;;;;;25.47;63.50;91891.88;5031360;28;20033;-80
2022/09/15 06:29:31;;;;;;;25.38;7.72;;;;;;;26.03;58.73;91899.88;5016922;28;20115;-80
2022/09/15 06:32:01;;;;;;;34.60;8.50;;;;;;;25.92;60.05;91891.19;5016164;28;20411;-79
2022/09/15 06:34:31;;;;;;;25.92;7.90;;;;;;;25.85;61.12;91886.59;5034249;28;20037;-79
2022/09/15 06:36:58;;;;;;;22.73;7.35;;;;;;;25.34;61.64;91890.81;5034773;28;20046;-79
2022/09/15 06:39:24;;;;;;;31.20;8.80;;;;;;;24.87;63.50;91895.63;5016044;28;20038;-79
2022/09/15 06:41:50;;;;;;;25.20;7.90;;;;;;;25.13;62.95;91895.13;5033887;28;20067;-79
2022/09/15 06:44:20;;;;;;;26.05;8.50;;;;;;;25.15;64.12;91889.34;5032415;28;20423;-79
2022/09/15 06:46:46;;;;;;;31.42;7.50;;;;;;;26.04;61.08;91888.00;5000650;28;20121;-79
2022/09/15 06:49:11;;;;;;;24.92;8.52;;;;;;;26.29;59.23;91887.75;5034028;28;20108;-79
2022/09/15 06:51:37;;;;;;;23.70;8.82;;;;;;;26.66;58.14;91896.97;5016180;28;20045;-79
2022/09/15 06:54:04;;;;;;;30.50;8.65;;;;;;;26.69;57.58;91901.53;4980267;28;20044;-79
2022/09/15 06:56:30;;;;;;;19.60;7.85;;;;;;;27.45;56.55;91906.75;5034372;28;20357;-79
2022/09/15 06:58:56;;;;;;;30.83;8.80;;;;;;;27.57;55.66;91922.31;5033488;28;20499;-80
2022/09/15 07:01:27;;;;;;;25.95;7.88;;;;;;;28.13;53.79;91913.03;5016248;28;20041;-80
2022/09/15 07:03:54;;;;;;;23.70;7.50;;;;;;;28.67;52.23;91923.63;5033683;28;20048;-80
2022/09/15 07:06:20;;;;;;;25.63;7.85;;;;;;;28.49;51.46;91925.91;5026792;28;20090;-79
2022/09/15 07:08:46;;;;;;;31.77;7.45;;;;;;;27.99;53.63;91922.09;5036138;28;20083;-80
2022/09/15 07:11:13;;;;;;;21.38;8.75;;;;;;;27.90;53.47;91924.53;5053314;28;20064;-79
2022/09/15 07:13:39;;;;;;;21.52;8.55;;;;;;;26.95;56.43;91924.25;5019532;28;20402;-79
2022/09/15 07:16:08;;;;;;;26.05;9.63;;;;;;;25.43;61.53;91923.28;5050661;28;20037;-79
2022/09/15 07:18:34;;;;;;;27.15;11.02;;;;;;;24.69;65.80;91923.22;5037327;28;20567;-79
2022/09/15 07:21:02;;;;;;;24.67;10.07;;;;;;;23.87;69.07;91923.34;5029281;28;20495;-79
2022/09/15 07:23:28;;;;;;;35.97;11.18;;;;;;;24.06;70.56;91930.22;5042279;28;20065;-79
2022/09/15 07:26:14;;;;;;;32.10;10.10;;;;;;;24.44;68.18;91927.84;5033690;28;20040;-79
2022/09/15 07:28:42;;;;;;;28.08;9.77;;;;;;;24.43;68.58;91939.69;5023414;28;20065;-79
2022/09/15 07:31:10;;;;;;;26.63;11.52;;;;;;;23.90;71.24;91939.38;5033456;28;20113;-79
2022/09/15 07:33:36;;;;;;;32.20;13.30;;;;;;;23.04;74.40;91939.22;5015596;28;20025;-79
2022/09/15 07:36:04;;;;;;;28.05;13.98;;;;;;;22.38;77.85;91941.19;4999804;28;20045;-79
2022/09/15 07:38:30;;;;;;;46.38;14.82;;;;;;;21.86;81.41;91943.88;5016141;28;20026;-78
2022/09/15 07:41:04;;;;;;;45.22;14.52;;;;;;;22.11;81.84;91946.72;5015348;28;20052;-79
2022/09/15 07:43:30;;;;;;;31.10;12.85;;;;;;;22.48;80.72;91945.81;5035906;28;20037;-79
2022/09/15 07:45:56;;;;;;;30.42;13.30;;;;;;;22.54;79.26;91947.00;5019069;28;20479;-78
2022/09/15 07:48:22;;;;;;;40.22;14.90;;;;;;;;;;5019974;28;20034;-78
2022/09/15 07:50:48;;;;;;;29.83;13.40;;;;;;;23.03;77.59;91953.72;5036687;28;20124;-78
2022/09/15 07:53:13;;;;;;;32.28;14.07;;;;;;;23.18;76.92;91953.75;5036118;28;20048;-78
2022/09/15 07:55:39;;;;;;;37.40;15.00;;;;;;;23.02;77.72;91962.88;5012447;28;20095;-79
2022/09/15 07:58:05;;;;;;;35.85;15.30;;;;;;;22.62;78.23;91955.81;5038608;28;20041;-78
2022/09/15 08:00:30;;;;;;;39.50;15.55;;;;;;;22.61;79.16;91964.97;5037106;28;20025;-78
2022/09/15 08:02:56;;;;;;;35.85;15.55;;;;;;;22.52;78.69;91956.53;5002427;28;20041;-78
2022/09/15 08:05:27;;;;;;;34.15;12.70;;;;;;;22.47;77.88;91954.94;5002606;28;20038;-78
2022/09/15 08:07:54;;;;;;;38.70;12.25;;;;;;;22.49;80.12;91957.25;5036865;28;20116;-79
2022/09/15 08:10:24;;;;;;;36.38;10.93;;;;;;;22.96;74.80;91953.66;5035126;28;20039;-78
2022/09/15 08:12:52;;;;;;;33.95;11.13;;;;;;;23.17;75.59;91968.25;5018305;28;20079;-78
2022/09/15 08:15:18;;;;;;;32.67;11.95;;;;;;;22.65;75.84;91955.03;5017890;28;20123;-79
2022/09/15 08:17:45;;;;;;;34.25;11.45;;;;;;;22.31;78.45;91971.25;5018313;28;20037;-78
2022/09/15 08:20:11;;;;;;;28.27;12.90;;;;;;;22.43;79.45;91964.84;5035722;28;20026;-78
2022/09/15 08:22:40;;;;;;;38.50;15.43;;;;;;;22.34;79.33;91967.09;5035849;28;20037;-78
2022/09/15 08:25:07;;;;;;;28.10;11.70;;;;;;;22.03;80.13;91971.78;5035509;28;20068;-78
2022/09/15 08:27:32;;;;;;;32.25;13.77;;;;;;;21.65;82.53;91971.09;5018585;28;20087;-78
2022/09/15 08:29:58;;;;;;;38.47;13.52;;;;;;;21.88;82.85;91967.47;5033931;28;20503;-78
2022/09/15 08:32:24;;;;;;;27.85;13.43;;;;;;;21.85;81.97;91969.00;5018016;28;20037;-78
2022/09/15 08:34:49;;;;;;;31.50;13.93;;;;;;;21.90;80.65;91962.56;5035636;28;20038;-78
2022/09/15 08:37:15;;;;;;;43.10;13.32;;;;;;;22.06;80.44;91971.03;5016188;28;20535;-77
2022/09/15 08:39:41;;;;;;;29.58;11.32;;;;;;;21.75;78.65;91965.13;5033994;28;20399;-77
2022/09/15 08:42:16;;;;;;;26.25;9.10;;;;;;;22.03;77.86;91966.47;5032940;28;20132;-77
2022/09/15 08:44:49;;;;;;;28.52;9.93;;;;;;;22.29;75.89;91960.22;5016534;28;20038;-77
2022/09/15 08:47:22;;;;;;;23.08;8.90;;;;;;;22.73;73.98;91963.88;5034096;28;20036;-76
2022/09/15 08:49:59;;;;;;;31.05;9.60;;;;;;;22.61;73.57;91965.72;5032800;28;20125;-77
2022/09/15 08:52:34;;;;;;;32.05;9.65;;;;;;;22.55;76.17;91967.19;5033299;28;20033;-77
2022/09/15 08:55:06;;;;;;;30.35;10.25;;;;;;;22.50;74.77;91958.78;5033589;28;20487;-77
2022/09/15 08:57:31;;;;;;;29.92;10.43;;;;;;;22.58;76.46;91957.69;5023882;28;20493;-77
2022/09/15 08:59:58;;;;;;;39.50;10.20;;;;;;;22.46;75.94;91958.75;5054259;28;20577;-78
2022/09/15 09:02:42;;;;;;;26.65;10.90;;;;;;;22.66;75.88;91953.91;5046625;28;20072;-78
2022/09/15 09:05:28;;;;;;;39.63;10.73;;;;;;;22.66;76.06;91960.00;5034704;28;20542;-78
2022/09/15 09:08:06;;;;;;;29.58;8.98;;;;;;;22.61;71.35;91960.38;5033083;28;20045;-77
2022/09/15 09:10:51;;;;;;;42.90;9.70;;;;;;;22.64;74.72;91958.88;5032537;28;20036;-76
2022/09/15 09:13:49;;;;;;;33.45;10.75;;;;;;;22.52;74.03;91954.63;5010569;28;20034;-77
2022/09/15 09:16:51;;;;;;;26.25;9.63;;;;;;;22.75;72.85;91945.56;4974002;28;20054;-75
2022/09/15 09:19:54;;;;;;;27.63;9.55;;;;;;;23.32;71.12;91948.44;5013185;28;20042;-77
2022/09/15 09:22:26;;;;;;;38.35;10.52;;;;;;;23.14;70.80;91945.72;4994121;28;20038;-79
2022/09/15 09:24:55;;;;;;;32.22;10.20;;;;;;;22.89;73.06;91944.88;4997186;28;20486;-81
2022/09/15 09:27:28;;;;;;;29.08;9.32;;;;;;;22.67;73.86;91942.09;5015845;28;20065;-80
2022/09/15 09:30:06;;;;;;;28.85;10.73;;;;;;;22.65;72.81;91945.16;4982236;28;20041;-81
2022/09/15 09:33:00;;;;;;;24.70;8.60;;;;;;;22.76;69.51;91937.19;4997959;28;20026;-82
2022/09/15 09:35:42;;;;;;;30.52;11.00;;;;;;;22.96;71.25;91932.31;4981683;28;20478;-80
2022/09/15 09:38:19;;;;;;;29.85;9.93;;;;;;;22.55;71.84;91935.19;5018073;28;20401;-82
2022/09/15 09:40:45;;;;;;;30.10;8.77;;;;;;;22.80;72.06;91932.63;4998483;28;20069;-81
2022/09/15 09:43:11;;;;;;;24.23;7.60;;;;;;;23.05;70.76;91930.06;4982642;28;20100;-82
2022/09/15 09:45:37;;;;;;;31.20;7.20;;;;;;;23.39;69.58;91927.09;5008913;28;20046;-83
2022/09/15 09:48:23;;;;;;;39.05;9.02;;;;;;;23.49;65.51;91928.28;4977772;28;20034;-82
2022/09/15 09:50:49;;;;;;;25.58;8.30;;;;;;;23.66;66.45;91924.84;5007132;28;20034;-82
2022/09/15 09:53:32;;;;;;;23.17;7.60;;;;;;;23.44;66.30;91924.06;5016555;28;20052;-81
2022/09/15 09:56:14;;;;;;;24.60;7.72;;;;;;;23.40;65.12;91923.28;4997487;28;20466;-82
2022/09/15 09:58:40;;;;;;;24.63;7.72;;;;;;;23.41;67.25;91924.81;5009727;28;20066;-82
2022/09/15 10:01:15;;;;;;;32.22;8.15;;;;;;;23.06;69.73;91923.59;4995198;28;20080;-81
2022/09/15 10:03:42;;;;;;;22.50;8.30;;;;;;;22.90;71.31;91922.38;5008089;28;20044;-81
2022/09/15 10:06:18;;;;;;;31.00;8.18;;;;;;;23.21;70.93;91920.97;5012058;28;20030;-81
2022/09/15 10:09:08;;;;;;;32.33;8.23;;;;;;;23.10;70.81;91920.94;5004155;28;20030;-80
2022/09/15 10:11:45;;;;;;;25.13;8.63;;;;;;;23.49;69.06;91913.00;5004923;28;20049;-83
2022/09/15 10:14:28;;;;;;;18.95;8.07;;;;;;;23.40;68.24;91906.50;5014819;28;20104;-82
2022/09/15 10:17:11;;;;;;;28.23;7.78;;;;;;;23.41;70.35;91908.03;5031337;28;20038;-81
2022/09/15 10:19:46;;;;;;;21.80;7.85;;;;;;;23.53;69.85;91898.88;5030660;28;20030;-81
2022/09/15 10:22:32;;;;;;;21.17;7.78;;;;;;;23.38;69.75;91895.44;5015691;28;20046;-81
2022/09/15 10:24:59;;;;;;;19.05;7.50;;;;;;;23.45;71.59;91895.44;5011540;28;20515;-81
2022/09/15 10:27:28;;;;;;;27.25;7.65;;;;;;;23.48;70.35;91897.34;5015142;28;20104;-81
2022/09/15 10:29:57;;;;;;;20.75;7.25;;;;;;;23.45;68.81;91890.88;5013933;28;20038;-82
2022/09/15 10:32:27;;;;;;;25.30;8.20;;;;;;;23.42;70.59;91882.88;5020284;28;20113;-82
2022/09/15 10:35:22;;;;;;;26.23;7.07;;;;;;;23.61;69.98;91889.72;5013158;28;20061;-82
2022/09/15 10:38:07;;;;;;;24.13;7.40;;;;;;;23.47;70.27;91877.91;4997549;28;20144;-81
2022/09/15 10:40:43;;;;;;;31.35;6.80;;;;;;;23.52;69.30;91884.75;5013145;28;20049;-80
2022/09/15 10:44:02;;;;;;;55.88;6.45;;;;;;;23.20;68.90;91887.41;5014796;28;20038;-81
2022/09/15 10:46:42;;;;;;;20.48;7.00;;;;;;;22.64;70.05;91884.94;4954088;29;20143;-81
2022/09/15 10:49:14;;;;;;;19.73;5.88;;;;;;;22.42;69.43;91875.31;4953915;29;20047;-81
2022/09/15 10:52:17;;;;;;;29.75;6.50;;;;;;;22.24;71.39;91880.56;4984511;28;20046;-79
2022/09/15 10:54:51;;;;;;;22.48;6.65;;;;;;;22.75;70.02;91876.22;5012665;28;20080;-79
2022/09/15 10:57:42;;;;;;;29.98;7.65;;;;;;;23.27;71.72;91871.41;5003835;28;20038;-80
2022/09/15 11:00:11;;;;;;;17.92;5.93;;;;;;;23.33;68.77;91877.91;5023227;28;20077;-79
2022/09/15 11:02:36;;;;;;;17.77;6.15;;;;;;;23.33;66.15;91882.44;5022522;28;20060;-81
2022/09/15 11:05:35;;;;;;;27.02;6.00;;;;;;;23.35;67.32;91878.28;5020589;28;20090;-80
2022/09/15 11:08:19;;;;;;;24.48;6.68;;;;;;;23.05;68.72;91871.34;5005273;28;20041;-80
2022/09/15 11:11:26;;;;;;;32.65;6.88;;;;;;;22.80;70.87;91870.50;5021893;28;20499;-80
2022/09/15 11:14:31;;;;;;;22.25;6.55;;;;;;;22.86;68.41;91861.00;5024914;28;20049;-79
2022/09/15 11:17:14;;;;;;;23.67;7.13;;;;;;;23.13;68.61;91850.03;5036480;28;20048;-80
2022/09/15 11:19:49;;;;;;;29.27;6.75;;;;;;;22.44;69.70;91847.13;5023689;28;20128;-79
2022/09/15 11:22:21;;;;;;;30.38;7.72;;;;;;;22.81;71.11;91845.38;5038853;28;20060;-79
2022/09/15 11:24:52;;;;;;;21.15;6.47;;;;;;;23.13;68.73;91850.03;5017541;28;20052;-81
2022/09/15 11:27:20;;;;;;;20.33;6.60;;;;;;;23.40;67.36;91850.44;5046384;28;20029;-82
2022/09/15 11:29:46;;;;;;;21.73;7.22;;;;;;;23.55;67.36;91848.50;5041392;28;20405;-82
2022/09/15 11:32:18;;;;;;;25.27;6.55;;;;;;;22.86;68.83;91845.75;5036819;28;20411;-82
2022/09/15 11:34:49;;;;;;;20.25;6.60;;;;;;;23.19;65.61;91848.50;5035827;28;20044;-79